Time;durP1;ratioP1;P1;durP2;ratioP2;P2;SDS_P1;SDS_P2;PMS_P1;PMS_P2;Temp;Humidity;BMP_temperature;BMP_pressure;BME280_temperature;BME280_humidity;BME280_pressure;Samples;Min_cycle;Max_cycle;Signal;HPM_P1;HPM_P2
2022/02/25 00:00:08;;;;;;;13.00;2.70;;;;;;;-145.73;100.00;61044.97;5081107;28;20044;-71
2022/02/25 00:02:37;;;;;;;8.60;2.22;;;;;;;-145.73;100.00;61044.97;5084944;28;20476;-70
2022/02/25 00:05:08;;;;;;;8.77;1.90;;;;;;;-145.73;100.00;61044.97;5083071;28;20040;-70
2022/02/25 00:07:36;;;;;;;11.23;2.67;;;;;;;-145.73;100.00;61044.97;5091748;28;20128;-70
2022/02/25 00:10:06;;;;;;;10.10;2.95;;;;;;;-145.73;100.00;61044.97;5081713;28;20543;-70
2022/02/25 00:12:34;;;;;;;10.27;3.03;;;;;;;-145.73;100.00;61044.97;5083777;28;20757;-71
2022/02/25 00:15:03;;;;;;;8.90;2.30;;;;;;;-145.73;100.00;61044.97;5080894;28;20059;-71
2022/02/25 00:17:32;;;;;;;9.60;2.15;;;;;;;-145.73;100.00;61044.97;5081036;28;20082;-71
2022/02/25 00:19:59;;;;;;;9.57;2.22;;;;;;;-145.73;100.00;61044.97;5080376;28;20048;-71
2022/02/25 00:22:28;;;;;;;10.40;2.45;;;;;;;-145.73;100.00;61044.97;5083454;28;20048;-71
2022/02/25 00:24:56;;;;;;;8.55;2.80;;;;;;;-145.73;100.00;61044.97;5081535;28;20349;-71
2022/02/25 00:27:24;;;;;;;7.47;2.25;;;;;;;-145.73;100.00;61044.97;5082181;28;20131;-72
2022/02/25 00:29:52;;;;;;;7.72;2.47;;;;;;;-145.73;100.00;61044.97;5076016;28;20044;-72
2022/02/25 00:32:21;;;;;;;8.32;1.85;;;;;;;-145.73;100.00;61044.97;5081758;28;20060;-71
2022/02/25 00:34:49;;;;;;;8.40;2.33;;;;;;;-145.73;100.00;61044.97;5081991;28;20079;-71
2022/02/25 00:37:16;;;;;;;9.73;2.28;;;;;;;-145.73;100.00;61044.97;5080387;28;20056;-71
2022/02/25 00:40:11;;;;;;;20.45;2.85;;;;;;;-145.73;100.00;61044.97;5084284;28;20051;-73
2022/02/25 00:42:38;;;;;;;9.38;2.42;;;;;;;-145.73;100.00;61044.97;5083193;28;20082;-73
2022/02/25 00:45:08;;;;;;;9.07;2.53;;;;;;;-145.73;100.00;61044.97;5082123;28;20052;-73
2022/02/25 00:47:37;;;;;;;5.78;2.10;;;;;;;-145.73;100.00;61044.97;5081052;28;20471;-72
2022/02/25 00:50:08;;;;;;;7.88;2.83;;;;;;;-145.73;100.00;61044.97;5081031;28;20048;-72
2022/02/25 00:52:37;;;;;;;13.20;3.03;;;;;;;-145.73;100.00;61044.97;5082334;28;20408;-75
2022/02/25 00:55:13;;;;;;;9.98;2.53;;;;;;;-145.73;100.00;61044.97;5082659;28;20354;-72
2022/02/25 00:57:45;;;;;;;11.23;2.97;;;;;;;-145.73;100.00;61044.97;5080264;28;20522;-75
2022/02/25 01:00:14;;;;;;;14.60;3.15;;;;;;;-145.73;100.00;61044.97;5080356;28;21465;-72
2022/02/25 01:02:43;;;;;;;12.90;3.72;;;;;;;-145.73;100.00;61044.97;5078794;28;20060;-75
2022/02/25 01:05:11;;;;;;;8.75;2.47;;;;;;;-145.73;100.00;61044.97;5083236;28;20052;-73
2022/02/25 01:07:40;;;;;;;7.55;2.35;;;;;;;-145.73;100.00;61044.97;5079259;28;20052;-74
2022/02/25 01:10:11;;;;;;;13.07;2.72;;;;;;;-145.73;100.00;61044.97;5079913;28;20516;-74
2022/02/25 01:12:39;;;;;;;14.10;2.40;;;;;;;-145.73;100.00;61044.97;5082191;28;20058;-73
2022/02/25 01:15:08;;;;;;;11.02;2.83;;;;;;;-145.73;100.00;61044.97;5079582;28;20044;-73
2022/02/25 01:17:37;;;;;;;7.13;2.63;;;;;;;-145.73;100.00;61044.97;5081130;28;20146;-74
2022/02/25 01:20:06;;;;;;;17.63;3.20;;;;;;;-145.73;100.00;61044.97;5082871;28;20056;-73
2022/02/25 01:22:35;;;;;;;8.85;2.42;;;;;;;-145.73;100.00;61044.97;5078062;28;20058;-73
2022/02/25 01:25:04;;;;;;;9.32;2.33;;;;;;;-145.73;100.00;61044.97;5080102;28;20054;-73
2022/02/25 01:27:33;;;;;;;12.50;2.40;;;;;;;-145.73;100.00;61044.97;5080840;28;20139;-73
2022/02/25 01:30:02;;;;;;;13.13;2.28;;;;;;;-145.73;100.00;61044.97;5081270;28;20058;-71
2022/02/25 01:32:30;;;;;;;8.90;2.40;;;;;;;-145.73;100.00;61044.97;5077666;28;20465;-71
2022/02/25 01:35:00;;;;;;;8.73;2.13;;;;;;;-145.73;100.00;61044.97;5082787;28;20422;-71
2022/02/25 01:37:28;;;;;;;10.10;2.50;;;;;;;-145.73;100.00;61044.97;5081300;28;20495;-71
2022/02/25 01:39:56;;;;;;;9.50;2.70;;;;;;;-145.73;100.00;61044.97;5079039;28;20075;-71
2022/02/25 01:42:24;;;;;;;21.88;3.70;;;;;;;-145.73;100.00;61044.97;5079754;28;20047;-72
2022/02/25 01:44:53;;;;;;;11.55;2.63;;;;;;;-145.73;100.00;61044.97;5079674;28;20043;-71
2022/02/25 01:47:21;;;;;;;8.55;2.55;;;;;;;-145.73;100.00;61044.97;5081353;28;20047;-71
2022/02/25 01:50:14;;;;;;;7.28;2.10;;;;;;;-145.73;100.00;61044.97;5079864;28;20553;-71
2022/02/25 01:52:57;;;;;;;14.43;3.15;;;;;;;-145.73;100.00;61044.97;5074919;28;20162;-71
2022/02/25 01:55:24;;;;;;;8.88;2.38;;;;;;;-145.73;100.00;61044.97;5079429;28;20243;-72
2022/02/25 01:57:54;;;;;;;12.40;2.67;;;;;;;-145.73;100.00;61044.97;5075141;28;20092;-71
2022/02/25 02:00:24;;;;;;;13.05;2.35;;;;;;;-145.73;100.00;61044.97;5080438;28;20052;-73
2022/02/25 02:02:52;;;;;;;13.13;2.75;;;;;;;-145.73;100.00;61044.97;5082339;28;20131;-72
2022/02/25 02:05:20;;;;;;;16.05;2.85;;;;;;;-145.73;100.00;61044.97;5078394;28;20054;-72
2022/02/25 02:07:51;;;;;;;7.78;2.33;;;;;;;-145.73;100.00;61044.97;5079336;28;20044;-72
2022/02/25 02:10:19;;;;;;;5.97;1.92;;;;;;;-145.73;100.00;61044.97;5074228;28;20058;-72
2022/02/25 02:12:47;;;;;;;12.10;3.22;;;;;;;-145.73;100.00;61044.97;5078566;28;20321;-73
2022/02/25 02:15:15;;;;;;;9.20;2.30;;;;;;;-145.73;100.00;61044.97;5078830;28;21194;-73
2022/02/25 02:17:44;;;;;;;8.25;2.75;;;;;;;-145.73;100.00;61044.97;5077859;28;20068;-73
2022/02/25 02:20:12;;;;;;;12.73;2.83;;;;;;;-145.73;100.00;61044.97;5081244;28;20051;-73
2022/02/25 02:22:41;;;;;;;15.10;2.75;;;;;;;-145.73;100.00;61044.97;5078865;28;20056;-72
2022/02/25 02:25:10;;;;;;;10.13;2.38;;;;;;;-145.73;100.00;61044.97;5076413;28;20044;-74
2022/02/25 02:30:23;;;;;;;16.95;3.80;;;;;;;-145.73;100.00;61044.97;5081579;28;20156;-73
2022/02/25 02:32:51;;;;;;;10.73;2.22;;;;;;;-145.73;100.00;61044.97;5079850;28;20050;-73
2022/02/25 02:35:18;;;;;;;13.05;3.05;;;;;;;-145.73;100.00;61044.97;5078262;28;20040;-73
2022/02/25 02:37:48;;;;;;;11.32;2.85;;;;;;;-145.73;100.00;61044.97;5079789;28;20142;-75
2022/02/25 02:40:15;;;;;;;14.85;2.83;;;;;;;-145.73;100.00;61044.97;5079158;28;21094;-75
2022/02/25 02:42:43;;;;;;;8.57;2.72;;;;;;;-145.73;100.00;61044.97;5082101;28;20052;-74
2022/02/25 02:45:11;;;;;;;14.70;3.78;;;;;;;-145.73;100.00;61044.97;5076945;28;20098;-75
2022/02/25 02:47:39;;;;;;;9.95;2.95;;;;;;;-145.73;100.00;61044.97;5076481;28;20058;-75
2022/02/25 02:50:08;;;;;;;16.00;3.00;;;;;;;-145.73;100.00;61044.97;5079377;28;20048;-75
2022/02/25 02:52:36;;;;;;;8.50;2.85;;;;;;;-145.73;100.00;61044.97;5072276;28;20110;-72
2022/02/25 02:55:07;;;;;;;14.20;3.42;;;;;;;-145.73;100.00;61044.97;5077226;28;20062;-71
2022/02/25 02:58:00;;;;;;;18.60;2.88;;;;;;;-145.73;100.00;61044.97;5077949;28;20601;-72
2022/02/25 03:00:28;;;;;;;14.65;3.33;;;;;;;-145.73;100.00;61044.97;5079227;28;20047;-72
2022/02/25 03:02:56;;;;;;;13.30;3.13;;;;;;;-145.73;100.00;61044.97;5078723;28;20059;-71
2022/02/25 03:05:24;;;;;;;29.90;3.70;;;;;;;-145.73;100.00;61044.97;5077299;28;20071;-72
2022/02/25 03:07:52;;;;;;;14.98;2.90;;;;;;;-145.73;100.00;61044.97;5079181;28;20072;-71
2022/02/25 03:10:22;;;;;;;10.00;2.63;;;;;;;-145.73;100.00;61044.97;5078138;28;20327;-72
2022/02/25 03:12:50;;;;;;;6.13;2.17;;;;;;;-145.73;100.00;61044.97;5078990;28;20068;-72
2022/02/25 03:15:18;;;;;;;8.57;2.85;;;;;;;-145.73;100.00;61044.97;5078445;28;20047;-72
2022/02/25 03:17:48;;;;;;;17.77;3.35;;;;;;;-145.73;100.00;61044.97;5080966;28;20468;-72
2022/02/25 03:20:16;;;;;;;8.75;2.20;;;;;;;-145.73;100.00;61044.97;5082501;28;20389;-72
2022/02/25 03:22:44;;;;;;;12.13;2.63;;;;;;;-145.73;100.00;61044.97;5082280;28;20050;-72
2022/02/25 03:25:13;;;;;;;13.77;2.90;;;;;;;-145.73;100.00;61044.97;5086988;28;20052;-72
2022/02/25 03:27:42;;;;;;;18.63;2.92;;;;;;;-145.73;100.00;61044.97;5085601;28;20055;-72
2022/02/25 03:30:11;;;;;;;16.48;2.95;;;;;;;-145.73;100.00;61044.97;5082877;28;20415;-73
2022/02/25 03:32:42;;;;;;;17.20;3.03;;;;;;;-145.73;100.00;61044.97;5085105;28;20055;-72
2022/02/25 03:35:10;;;;;;;14.38;2.65;;;;;;;-145.73;100.00;61044.97;5083203;28;20048;-72
2022/02/25 03:37:38;;;;;;;15.88;3.85;;;;;;;-145.73;100.00;61044.97;5082120;28;20275;-72
2022/02/25 03:40:08;;;;;;;17.30;3.28;;;;;;;-145.73;100.00;61044.97;5081297;28;20493;-73
2022/02/25 03:42:37;;;;;;;19.30;3.95;;;;;;;-145.73;100.00;61044.97;5085965;28;20047;-73
2022/02/25 03:45:08;;;;;;;12.73;2.90;;;;;;;-145.73;100.00;61044.97;5079926;28;20592;-73
2022/02/25 03:47:37;;;;;;;16.00;3.30;;;;;;;-145.73;100.00;61044.97;5079840;28;20676;-73
2022/02/25 03:50:06;;;;;;;15.85;3.40;;;;;;;-145.73;100.00;61044.97;5082649;28;20121;-74
2022/02/25 03:52:34;;;;;;;14.30;2.63;;;;;;;-145.73;100.00;61044.97;5077466;28;20048;-73
2022/02/25 03:55:02;;;;;;;14.75;2.97;;;;;;;-145.73;100.00;61044.97;5084440;28;20245;-74
2022/02/25 03:57:29;;;;;;;8.10;1.90;;;;;;;-145.73;100.00;61044.97;5079323;28;20116;-73
2022/02/25 03:59:57;;;;;;;10.60;2.83;;;;;;;-145.73;100.00;61044.97;5082740;28;20056;-72
2022/02/25 04:02:28;;;;;;;12.05;2.65;;;;;;;-145.73;100.00;61044.97;5078566;28;20289;-74
2022/02/25 04:04:56;;;;;;;15.45;3.15;;;;;;;-145.73;100.00;61044.97;5082165;28;20667;-74
2022/02/25 04:07:25;;;;;;;20.63;3.35;;;;;;;-145.73;100.00;61044.97;5080047;28;20040;-72
2022/02/25 04:09:52;;;;;;;9.10;2.70;;;;;;;-145.73;100.00;61044.97;5080293;28;20044;-71
2022/02/25 04:12:21;;;;;;;14.20;3.33;;;;;;;-145.73;100.00;61044.97;5081145;28;20058;-72
2022/02/25 04:14:49;;;;;;;18.20;4.10;;;;;;;-145.73;100.00;61044.97;5082172;28;20054;-72
2022/02/25 04:17:18;;;;;;;18.27;3.67;;;;;;;-145.73;100.00;61044.97;5082809;28;20144;-72
2022/02/25 04:19:48;;;;;;;16.40;3.63;;;;;;;-145.73;100.00;61044.97;5078564;28;20341;-72
2022/02/25 04:22:16;;;;;;;13.82;3.38;;;;;;;-145.73;100.00;61044.97;5079593;28;20565;-72
2022/02/25 04:24:44;;;;;;;12.23;2.88;;;;;;;-145.73;100.00;61044.97;5080609;28;20062;-76
2022/02/25 04:27:11;;;;;;;16.23;3.58;;;;;;;-145.73;100.00;61044.97;5079265;28;20040;-73
2022/02/25 04:29:41;;;;;;;16.98;4.30;;;;;;;-145.73;100.00;61044.97;5077838;28;20458;-74
2022/02/25 04:32:09;;;;;;;9.57;2.97;;;;;;;-145.73;100.00;61044.97;5080855;28;20418;-74
2022/02/25 04:34:38;;;;;;;13.50;3.22;;;;;;;-145.73;100.00;61044.97;5082373;28;20125;-72
2022/02/25 04:37:08;;;;;;;18.02;3.13;;;;;;;-145.73;100.00;61044.97;5080733;28;20527;-74
2022/02/25 04:39:36;;;;;;;13.13;2.95;;;;;;;-145.73;100.00;61044.97;5083810;28;20044;-73
2022/02/25 04:42:04;;;;;;;8.52;2.55;;;;;;;-145.73;100.00;61044.97;5078961;28;20562;-73
2022/02/25 04:44:35;;;;;;;17.80;3.55;;;;;;;-145.73;100.00;61044.97;5080261;28;20044;-74
2022/02/25 04:47:04;;;;;;;14.90;3.83;;;;;;;-145.73;100.00;61044.97;5079763;28;20123;-71
2022/02/25 04:49:32;;;;;;;14.10;2.70;;;;;;;-145.73;100.00;61044.97;5080256;28;20048;-73
2022/02/25 04:52:00;;;;;;;13.48;3.13;;;;;;;-145.73;100.00;61044.97;5081685;28;20485;-74
2022/02/25 04:54:29;;;;;;;13.38;2.28;;;;;;;-145.73;100.00;61044.97;5077229;28;20083;-72
2022/02/25 04:56:57;;;;;;;11.38;4.30;;;;;;;-145.73;100.00;61044.97;5081310;28;20143;-72
2022/02/25 04:59:24;;;;;;;10.55;3.67;;;;;;;-145.73;100.00;61044.97;5081742;28;20088;-71
2022/02/25 05:01:52;;;;;;;14.85;3.22;;;;;;;-145.73;100.00;61044.97;5084980;28;20044;-72
2022/02/25 05:04:20;;;;;;;11.98;2.90;;;;;;;-145.73;100.00;61044.97;5080939;28;20074;-74
2022/02/25 05:06:50;;;;;;;10.07;3.20;;;;;;;-145.73;100.00;61044.97;5081458;28;20052;-72
2022/02/25 05:09:18;;;;;;;19.35;3.95;;;;;;;-145.73;100.00;61044.97;5077913;28;20065;-72
2022/02/25 05:11:49;;;;;;;15.00;3.45;;;;;;;-145.73;100.00;61044.97;5080720;28;20052;-73
2022/02/25 05:22:34;;;;;;;19.30;3.20;;;;;;;-145.73;100.00;61044.97;5080867;28;20058;-74
2022/02/25 05:25:08;;;;;;;23.48;3.95;;;;;;;-145.73;100.00;61044.97;5083727;28;20062;-74
2022/02/25 05:27:38;;;;;;;11.10;3.40;;;;;;;-145.73;100.00;61044.97;5082080;28;20177;-74
2022/02/25 05:30:15;;;;;;;13.75;3.22;;;;;;;-145.73;100.00;61044.97;5079565;28;20048;-74
2022/02/25 05:32:49;;;;;;;16.10;3.20;;;;;;;-145.73;100.00;61044.97;5079844;28;20058;-74
2022/02/25 05:35:20;;;;;;;11.60;2.90;;;;;;;-145.73;100.00;61044.97;5082697;28;20137;-74
2022/02/25 05:38:13;;;;;;;19.63;3.47;;;;;;;-145.73;100.00;61044.97;5075651;28;20463;-74
2022/02/25 05:40:42;;;;;;;13.35;3.10;;;;;;;-145.73;100.00;61044.97;5077513;28;20053;-73
2022/02/25 05:43:14;;;;;;;13.30;3.30;;;;;;;-145.73;100.00;61044.97;5075622;28;20210;-72
2022/02/25 05:45:45;;;;;;;10.07;2.72;;;;;;;-145.73;100.00;61044.97;5079884;28;20097;-71
2022/02/25 05:48:16;;;;;;;10.07;3.38;;;;;;;-145.73;100.00;61044.97;5077363;28;20565;-72
2022/02/25 05:50:44;;;;;;;11.60;3.10;;;;;;;-145.73;100.00;61044.97;5077315;28;20056;-70
2022/02/25 05:53:12;;;;;;;10.25;2.72;;;;;;;-145.73;100.00;61044.97;5078061;28;20059;-72
2022/02/25 05:55:41;;;;;;;10.00;2.88;;;;;;;-145.73;100.00;61044.97;5084526;28;20093;-71
2022/02/25 05:58:11;;;;;;;24.35;4.00;;;;;;;-145.73;100.00;61044.97;5077649;28;20139;-71
2022/02/25 06:00:41;;;;;;;17.40;3.33;;;;;;;-145.73;100.00;61044.97;5078363;28;20048;-70
2022/02/25 06:03:09;;;;;;;9.02;2.70;;;;;;;-145.73;100.00;61044.97;5073722;28;20484;-70
2022/02/25 06:05:40;;;;;;;19.58;3.03;;;;;;;-145.73;100.00;61044.97;5079862;28;20044;-71
2022/02/25 06:08:08;;;;;;;12.07;3.13;;;;;;;-145.73;100.00;61044.97;5079708;28;20751;-71
2022/02/25 06:10:36;;;;;;;16.17;2.95;;;;;;;-145.73;100.00;61044.97;5084359;28;20720;-70
2022/02/25 06:13:05;;;;;;;10.00;3.03;;;;;;;-145.73;100.00;61044.97;5079654;28;20518;-70
2022/02/25 06:15:38;;;;;;;13.23;3.90;;;;;;;-145.73;100.00;61044.97;5080171;28;20052;-70
2022/02/25 06:18:06;;;;;;;9.50;2.53;;;;;;;-145.73;100.00;61044.97;5075867;28;20048;-70
2022/02/25 06:20:41;;;;;;;12.40;2.80;;;;;;;-145.73;100.00;61044.97;5081178;28;20048;-69
2022/02/25 06:23:09;;;;;;;10.82;3.08;;;;;;;-145.73;100.00;61044.97;5076437;28;20159;-69
2022/02/25 06:25:37;;;;;;;13.65;2.75;;;;;;;-145.73;100.00;61044.97;5079513;28;20116;-69
2022/02/25 06:28:07;;;;;;;16.15;4.25;;;;;;;-145.73;100.00;61044.97;5080901;28;20079;-69
2022/02/25 06:30:38;;;;;;;10.00;2.95;;;;;;;-145.73;100.00;61044.97;5078508;28;20050;-69
2022/02/25 06:33:06;;;;;;;9.32;2.75;;;;;;;-145.73;100.00;61044.97;5080122;28;20048;-68
2022/02/25 06:35:35;;;;;;;13.20;2.80;;;;;;;-145.73;100.00;61044.97;5083352;28;20068;-69
2022/02/25 06:38:05;;;;;;;10.85;3.28;;;;;;;-145.73;100.00;61044.97;5080468;28;20044;-68
2022/02/25 06:40:33;;;;;;;12.85;3.30;;;;;;;-145.73;100.00;61044.97;5061430;28;20143;-68
2022/02/25 06:43:01;;;;;;;11.15;2.90;;;;;;;-145.73;100.00;61044.97;5078761;28;20119;-69
2022/02/25 06:45:32;;;;;;;12.52;2.67;;;;;;;-145.73;100.00;61044.97;5081117;28;20158;-69
2022/02/25 06:48:03;;;;;;;18.88;3.40;;;;;;;-145.73;100.00;61044.97;5078923;28;20052;-69
2022/02/25 06:50:32;;;;;;;14.88;3.50;;;;;;;-145.73;100.00;61044.97;5081799;28;20074;-69
2022/02/25 06:53:02;;;;;;;15.18;2.80;;;;;;;-145.73;100.00;61044.97;5079803;28;20899;-69
2022/02/25 06:55:30;;;;;;;8.18;2.65;;;;;;;-145.73;100.00;61044.97;5079581;28;20052;-68
2022/02/25 06:58:01;;;;;;;8.15;3.13;;;;;;;-145.73;100.00;61044.97;5078429;28;20075;-69
2022/02/25 07:00:29;;;;;;;17.08;3.45;;;;;;;-145.73;100.00;61044.97;5077318;28;20113;-69
2022/02/25 07:02:57;;;;;;;9.57;2.95;;;;;;;-145.73;100.00;61044.97;5074329;28;20252;-68
2022/02/25 07:05:27;;;;;;;16.42;3.47;;;;;;;-145.73;100.00;61044.97;5080544;28;20048;-69
2022/02/25 07:07:55;;;;;;;11.15;3.25;;;;;;;-145.73;100.00;61044.97;5076576;28;20844;-68
2022/02/25 07:10:28;;;;;;;14.18;3.65;;;;;;;-145.73;100.00;61044.97;5079051;28;20514;-69
2022/02/25 07:12:56;;;;;;;14.95;3.63;;;;;;;-145.73;100.00;61044.97;5081451;28;20392;-69
2022/02/25 07:15:24;;;;;;;15.07;3.08;;;;;;;-145.73;100.00;61044.97;5078676;28;20541;-69
2022/02/25 07:17:51;;;;;;;11.88;2.85;;;;;;;-145.73;100.00;61044.97;5078920;28;20054;-69
2022/02/25 07:20:19;;;;;;;11.52;3.08;;;;;;;-145.73;100.00;61044.97;5079804;28;20576;-69
2022/02/25 07:22:50;;;;;;;12.05;3.17;;;;;;;-145.73;100.00;61044.97;5077363;28;22667;-69
2022/02/25 07:25:19;;;;;;;13.40;3.85;;;;;;;-145.73;100.00;61044.97;5072181;28;20129;-69
2022/02/25 07:27:47;;;;;;;11.85;3.13;;;;;;;-145.73;100.00;61044.97;5073605;28;20094;-68
2022/02/25 07:30:17;;;;;;;19.25;4.28;;;;;;;-145.73;100.00;61044.97;5077744;28;20040;-69
2022/02/25 07:32:45;;;;;;;17.23;3.60;;;;;;;-145.73;100.00;61044.97;5074171;28;20208;-68
2022/02/25 07:35:13;;;;;;;10.05;2.85;;;;;;;-145.73;100.00;61044.97;5076855;28;20093;-69
2022/02/25 07:37:42;;;;;;;16.30;3.78;;;;;;;-145.73;100.00;61044.97;5072393;28;20298;-69
2022/02/25 07:40:13;;;;;;;19.60;3.92;;;;;;;-145.73;100.00;61044.97;5074876;28;20074;-69
2022/02/25 07:42:42;;;;;;;11.00;3.58;;;;;;;-145.73;100.00;61044.97;5073418;28;20044;-69
2022/02/25 07:45:11;;;;;;;17.45;4.07;;;;;;;-145.73;100.00;61044.97;5077190;28;20222;-69
2022/02/25 07:47:39;;;;;;;10.52;3.58;;;;;;;-145.73;100.00;61044.97;5073993;28;20075;-68
2022/02/25 07:50:09;;;;;;;11.82;2.92;;;;;;;-145.73;100.00;61044.97;5078336;28;20163;-68
2022/02/25 07:52:38;;;;;;;16.15;3.67;;;;;;;-145.73;100.00;61044.97;5079400;28;20044;-69
2022/02/25 07:55:08;;;;;;;13.85;3.30;;;;;;;-145.73;100.00;61044.97;5077734;28;20093;-72
2022/02/25 07:57:38;;;;;;;17.67;3.75;;;;;;;-145.73;100.00;61044.97;5080628;28;20056;-72
2022/02/25 08:00:25;;;;;;;8.50;2.72;;;;;;;-145.73;100.00;61044.97;5074014;28;20052;-73
2022/02/25 08:02:54;;;;;;;13.45;2.97;;;;;;;-145.73;100.00;61044.97;5080289;28;20077;-70
2022/02/25 08:05:23;;;;;;;12.65;3.53;;;;;;;-145.73;100.00;61044.97;5083493;28;20136;-70
2022/02/25 08:07:51;;;;;;;10.38;3.67;;;;;;;-145.73;100.00;61044.97;5079327;28;20048;-70
2022/02/25 08:10:19;;;;;;;5.97;2.60;;;;;;;-145.73;100.00;61044.97;5082411;28;20082;-73
2022/02/25 08:12:48;;;;;;;9.45;2.38;;;;;;;-145.73;100.00;61044.97;5080265;28;20087;-73
2022/02/25 08:15:17;;;;;;;20.73;3.67;;;;;;;-145.73;100.00;61044.97;5078096;28;20723;-73
2022/02/25 08:17:45;;;;;;;12.07;3.03;;;;;;;-145.73;100.00;61044.97;5083249;28;20052;-75
2022/02/25 08:20:13;;;;;;;15.43;3.97;;;;;;;-145.73;100.00;61044.97;5082666;28;20138;-73
2022/02/25 08:22:41;;;;;;;12.32;3.72;;;;;;;-145.73;100.00;61044.97;5073443;28;20142;-74
2022/02/25 08:25:10;;;;;;;13.90;3.88;;;;;;;-145.73;100.00;61044.97;5079123;28;20056;-73
2022/02/25 08:27:38;;;;;;;13.20;3.17;;;;;;;-145.73;100.00;61044.97;5079853;28;20419;-72
2022/02/25 08:30:14;;;;;;;18.73;3.42;;;;;;;-145.73;100.00;61044.97;5081291;28;20081;-73
2022/02/25 08:32:43;;;;;;;11.75;3.53;;;;;;;-145.73;100.00;61044.97;5078643;28;20051;-74
2022/02/25 08:35:11;;;;;;;13.70;2.95;;;;;;;-145.73;100.00;61044.97;5080404;28;20052;-74
2022/02/25 08:38:05;;;;;;;15.40;3.10;;;;;;;-145.73;100.00;61044.97;5079889;28;20063;-73
2022/02/25 08:40:34;;;;;;;13.65;2.95;;;;;;;-145.73;100.00;61044.97;5079306;28;20409;-72
2022/02/25 08:43:03;;;;;;;13.93;3.10;;;;;;;-145.73;100.00;61044.97;5080063;28;20523;-73
2022/02/25 08:45:32;;;;;;;18.45;3.38;;;;;;;-145.73;100.00;61044.97;5077525;28;20458;-72
2022/02/25 08:48:00;;;;;;;12.70;3.22;;;;;;;-145.73;100.00;61044.97;5084125;28;20120;-73
2022/02/25 08:50:29;;;;;;;10.13;3.45;;;;;;;-145.73;100.00;61044.97;5080015;28;20044;-73
2022/02/25 08:52:56;;;;;;;12.52;3.80;;;;;;;-145.73;100.00;61044.97;5076457;28;20060;-72
2022/02/25 08:55:25;;;;;;;10.82;2.83;;;;;;;-145.73;100.00;61044.97;5078873;28;20141;-73
2022/02/25 08:57:53;;;;;;;14.43;4.05;;;;;;;-145.73;100.00;61044.97;5075202;28;20647;-73
2022/02/25 09:00:23;;;;;;;16.88;3.83;;;;;;;-145.73;100.00;61044.97;5080522;28;20068;-73
2022/02/25 09:02:54;;;;;;;17.48;3.65;;;;;;;-145.73;100.00;61044.97;5080324;28;20182;-73
2022/02/25 09:05:23;;;;;;;11.65;2.90;;;;;;;-145.73;100.00;61044.97;5081886;28;20056;-73
2022/02/25 09:07:52;;;;;;;16.73;3.00;;;;;;;-145.73;100.00;61044.97;5082003;28;20135;-73
2022/02/25 09:10:21;;;;;;;11.65;3.25;;;;;;;-145.73;100.00;61044.97;5080678;28;20059;-73
2022/02/25 09:12:50;;;;;;;12.55;3.47;;;;;;;-145.73;100.00;61044.97;5080540;28;20054;-73
2022/02/25 09:15:22;;;;;;;18.77;3.92;;;;;;;-145.73;100.00;61044.97;5083955;28;20127;-73
2022/02/25 09:17:52;;;;;;;17.50;3.33;;;;;;;-145.73;100.00;61044.97;5079368;28;20051;-74
2022/02/25 09:20:21;;;;;;;15.38;3.80;;;;;;;-145.73;100.00;61044.97;5078304;28;20574;-73
2022/02/25 09:22:50;;;;;;;13.88;3.65;;;;;;;-145.73;100.00;61044.97;5080598;28;20040;-71
2022/02/25 09:25:23;;;;;;;14.10;3.22;;;;;;;-145.73;100.00;61044.97;5079448;28;20051;-71
2022/02/25 09:27:51;;;;;;;9.07;3.78;;;;;;;-145.73;100.00;61044.97;5076981;28;20067;-71
2022/02/25 09:30:19;;;;;;;12.10;3.63;;;;;;;-145.73;100.00;61044.97;5080344;28;20112;-71
2022/02/25 09:32:49;;;;;;;16.35;3.47;;;;;;;-145.73;100.00;61044.97;5078288;28;20044;-71
2022/02/25 09:35:19;;;;;;;21.42;4.57;;;;;;;-145.73;100.00;61044.97;5082011;28;20127;-71
2022/02/25 09:37:47;;;;;;;16.83;4.40;;;;;;;-145.73;100.00;61044.97;5079328;28;20188;-71
2022/02/25 09:40:18;;;;;;;9.65;2.95;;;;;;;-145.73;100.00;61044.97;5076820;28;20080;-71
2022/02/25 09:42:47;;;;;;;12.77;3.63;;;;;;;-145.73;100.00;61044.97;5080115;28;20052;-72
2022/02/25 09:45:17;;;;;;;20.98;3.45;;;;;;;-145.73;100.00;61044.97;5077951;28;20048;-72
2022/02/25 09:47:46;;;;;;;19.77;3.38;;;;;;;-145.73;100.00;61044.97;5076074;28;20490;-72
2022/02/25 09:50:15;;;;;;;15.48;3.38;;;;;;;-145.73;100.00;61044.97;5083146;28;20044;-72
2022/02/25 09:52:45;;;;;;;14.15;3.30;;;;;;;-145.73;100.00;61044.97;5080416;28;20750;-73
2022/02/25 09:55:21;;;;;;;16.40;3.40;;;;;;;-145.73;100.00;61044.97;5080904;28;20154;-73
2022/02/25 09:57:50;;;;;;;11.25;4.22;;;;;;;-145.73;100.00;61044.97;5077842;28;20134;-73
2022/02/25 10:00:18;;;;;;;11.35;3.10;;;;;;;-145.73;100.00;61044.97;5081327;28;20058;-73
2022/02/25 10:02:48;;;;;;;13.88;4.22;;;;;;;-145.73;100.00;61044.97;5079828;28;20162;-73
2022/02/25 10:05:19;;;;;;;15.45;3.28;;;;;;;-145.73;100.00;61044.97;5075484;28;20132;-73
2022/02/25 10:07:49;;;;;;;8.18;2.90;;;;;;;-145.73;100.00;61044.97;5079245;28;20052;-73
2022/02/25 10:10:20;;;;;;;17.85;4.07;;;;;;;-145.73;100.00;61044.97;5080332;28;20131;-72
2022/02/25 10:12:56;;;;;;;11.95;4.57;;;;;;;-145.73;100.00;61044.97;5080808;28;20056;-72
2022/02/25 10:15:29;;;;;;;10.35;2.80;;;;;;;-145.73;100.00;61044.97;5081005;28;20083;-72
2022/02/25 10:18:04;;;;;;;16.10;3.38;;;;;;;-145.73;100.00;61044.97;5080807;28;20052;-72
2022/02/25 10:21:08;;;;;;;17.67;3.83;;;;;;;-145.73;100.00;61044.97;5074456;28;20059;-73
2022/02/25 10:24:09;;;;;;;12.80;3.53;;;;;;;-145.73;100.00;61044.97;5077060;28;20055;-71
2022/02/25 10:26:40;;;;;;;16.92;3.38;;;;;;;-145.73;100.00;61044.97;5076613;28;20058;-74
2022/02/25 10:29:09;;;;;;;19.13;3.92;;;;;;;-145.73;100.00;61044.97;5082584;28;20350;-75
2022/02/25 10:31:38;;;;;;;16.75;3.22;;;;;;;-145.73;100.00;61044.97;5074523;28;20381;-75
2022/02/25 10:34:11;;;;;;;12.63;3.88;;;;;;;-145.73;100.00;61044.97;5077174;28;20095;-75
2022/02/25 10:36:46;;;;;;;14.63;3.28;;;;;;;-145.73;100.00;61044.97;5078736;28;20505;-74
2022/02/25 10:39:19;;;;;;;8.43;3.05;;;;;;;-145.73;100.00;61044.97;5075771;28;20036;-75
2022/02/25 10:42:11;;;;;;;12.80;3.00;;;;;;;-145.73;100.00;61044.97;5076429;28;20636;-74
2022/02/25 10:44:42;;;;;;;9.02;2.85;;;;;;;-145.73;100.00;61044.97;5073843;28;20047;-75
2022/02/25 10:47:19;;;;;;;10.52;2.85;;;;;;;-145.73;100.00;61044.97;5076928;28;20059;-73
2022/02/25 10:49:49;;;;;;;11.40;3.28;;;;;;;-145.73;100.00;61044.97;5079791;28;20102;-74
2022/02/25 10:52:29;;;;;;;15.35;4.47;;;;;;;-145.73;100.00;61044.97;5078063;28;20056;-73
2022/02/25 10:55:03;;;;;;;14.00;3.80;;;;;;;-145.73;100.00;61044.97;5075811;28;20044;-73
2022/02/25 10:57:35;;;;;;;13.90;3.10;;;;;;;-145.73;100.00;61044.97;5072413;28;20149;-73
2022/02/25 11:00:11;;;;;;;15.40;3.10;;;;;;;-145.73;100.00;61044.97;5076488;28;20048;-73
2022/02/25 11:02:40;;;;;;;11.45;3.13;;;;;;;-145.73;100.00;61044.97;5074192;28;20044;-73
2022/02/25 11:05:10;;;;;;;11.52;2.72;;;;;;;-145.73;100.00;61044.97;5074150;28;20052;-73
2022/02/25 11:07:41;;;;;;;13.02;3.85;;;;;;;-145.73;100.00;61044.97;5077601;28;20048;-73
2022/02/25 11:10:12;;;;;;;9.20;2.72;;;;;;;-145.73;100.00;61044.97;5078575;28;20142;-73
2022/02/25 11:12:42;;;;;;;14.95;3.88;;;;;;;-145.73;100.00;61044.97;5081305;28;20052;-73
2022/02/25 11:15:12;;;;;;;16.83;3.63;;;;;;;-145.73;100.00;61044.97;5074573;28;20550;-72
2022/02/25 11:17:43;;;;;;;12.30;3.28;;;;;;;-145.73;100.00;61044.97;5078406;28;20093;-72
2022/02/25 11:20:18;;;;;;;;;;;;;;;-145.73;100.00;61044.97;5077501;28;20059;-72
2022/02/25 11:22:49;;;;;;;15.10;3.55;;;;;;;-145.73;100.00;61044.97;5076536;28;19963;-73
2022/02/25 11:25:19;;;;;;;12.05;3.63;;;;;;;-145.73;100.00;61044.97;5077644;28;20052;-72
2022/02/25 11:27:47;;;;;;;14.90;3.75;;;;;;;-145.73;100.00;61044.97;5080355;28;20089;-72